AMD Ryzen 9 7950X3D G.SKILL Trident Z5 Neo RGB 32GB DDR5 6000MHz CL30 AMD EXPO Certified (2 x 16GB) ASUS ROG STRIX B650E-E GAMING WIFI ASUS TUF Gaming GeForce RTX 4090 OC Edition Byiski N-AS4090STRIX-X Samsung 980 PRO 500GB (OS drive) Samsung 980 PRO 1TB X2 RAID0 Samsung 860 EVO 1TB X2 RAID0 EK-Quantum Velocity² D-RGB - AM5 Nickel + Plexi EK-Quantum Kinetic FLT 240 D5 PWM D-RGB - Plexi EVGA P2 1600W Yamaha AG03 3-Channel Mixer/Audio Interface ARCTIS NOVA PRO WIRELESS Intel X520 10Gbps SFP+ AMD
| Date | Subscribers | Change | Rank | Views | Change | Rank | Videos | Change |
|---|---|---|---|---|---|---|---|---|
| 05-05 11:05Latest | 86,900 | 0 | 5310Rank Suffix | 68,778,718 | +7,189 | 4000Rank Suffix | 4,637 | 0 |
| 05-04 11:04 | 86,900 | 0 | 5312Rank Suffix | 68,771,529 | +11,021 | 4003Rank Suffix | 4,637 | 0 |
| 05-03 11:05 | 86,900 | 0 | 5308Rank Suffix | 68,760,508 | +9,350 | 4004Rank Suffix | 4,637 | +1 |
| 05-02 11:05 | 86,900 | 0 | 5307Rank Suffix | 68,751,158 | +7,630 | 4002Rank Suffix | 4,636 | +1 |
| 05-01 11:05 | 86,900 | 0 | 5303Rank Suffix | 68,743,528 | +4,902 | 3996Rank Suffix | 4,635 | +1 |
| 04-30 11:05 | 86,900 | 0 | 5303Rank Suffix | 68,738,626 | +2,500 | 3998Rank Suffix | 4,634 | +1 |
| 04-29 11:05 | 86,900 | 0 | 5298Rank Suffix | 68,736,126 | +8,463 | 3996Rank Suffix | 4,633 | +1 |
| 04-28 11:04 | 86,900 | 0 | 5293Rank Suffix | 68,727,663 | +4,121 | 3994Rank Suffix | 4,632 | 0 |
| 04-27 11:04 | 86,900 | 0 | 5292Rank Suffix | 68,723,542 | +8,579 | 3989Rank Suffix | 4,632 | 0 |
| 04-26 11:05 | 86,900 | 0 | 5291Rank Suffix | 68,714,963 | +9,614 | 3988Rank Suffix | 4,632 | +1 |
| 04-25 11:04 | 86,900 | 0 | 5290Rank Suffix | 68,705,349 | +5,564 | 3988Rank Suffix | 4,631 | +1 |
| 04-24 11:04 | 86,900 | 0 | 5285Rank Suffix | 68,699,785 | +5,785 | 3978Rank Suffix | 4,630 | +1 |
| 04-23 11:04 | 86,900 | 0 | 5285Rank Suffix | 68,694,000 | +3,226 | 3972Rank Suffix | 4,629 | +1 |
| 04-22 11:04 | 86,900 | 0 | 5283Rank Suffix | 68,690,774 | +5,703 | 3972Rank Suffix | 4,628 | +1 |
| 04-21 11:04 | 86,900 | 0 | 5276Rank Suffix | 68,685,071 | +5,323 | 3966Rank Suffix | 4,627 | +1 |
| 04-20 11:04 | 86,900 | 0 | 5276Rank Suffix | 68,679,748 | +11,105 | 3965Rank Suffix | 4,626 | -1 |
| 04-19 11:04 | 86,900 | 0 | 5271Rank Suffix | 68,668,643 | +9,210 | 3960Rank Suffix | 4,627 | +1 |
| 04-18 11:04 | 86,900 | 0 | 5264Rank Suffix | 68,659,433 | +790 | 3952Rank Suffix | 4,626 | +1 |
| 04-17 11:04 | 86,900 | 0 | 5262Rank Suffix | 68,658,643 | +3,905 | 3952Rank Suffix | 4,625 | +1 |
| 04-16 21:06 | 86,900 | 0 | 5259Rank Suffix | 68,654,738 | +8,733 | 3951Rank Suffix | 4,624 | +1 |
| 04-15 11:04 | 86,900 | 0 | 5253Rank Suffix | 68,646,005 | +3,524 | 3943Rank Suffix | 4,623 | +1 |
| 04-14 11:04 | 86,900 | 0 | 5249Rank Suffix | 68,642,481 | +3,647 | 3940Rank Suffix | 4,622 | 0 |
| 04-13 11:03 | 86,900 | 0 | 5250Rank Suffix | 68,638,834 | +10,645 | 3938Rank Suffix | 4,622 | 0 |
| 04-12 11:03 | 86,900 | 0 | 5245Rank Suffix | 68,628,189 | +9,288 | 3936Rank Suffix | 4,622 | +1 |
| 04-11 11:04 | 86,900 | 0 | 5244Rank Suffix | 68,618,901 | +3,401 | 3934Rank Suffix | 4,621 | +1 |
| 04-10 11:04 | 86,900 | 0 | 5256Rank Suffix | 68,615,500 | +7,878 | 3947Rank Suffix | 4,620 | +1 |
| 04-09 11:04 | 86,900 | 0 | 5261Rank Suffix | 68,607,622 | +7,463 | 3948Rank Suffix | 4,619 | +1 |
| 04-08 11:03 | 86,900 | 0 | 5256Rank Suffix | 68,600,159 | +1,872 | 3946Rank Suffix | 4,618 | +1 |
| 04-07 11:04 | 86,900 | 0 | 5253Rank Suffix | 68,598,287 | +9,151 | 3946Rank Suffix | 4,617 | 0 |
| 04-06 11:04 | 86,900 | 5226Rank Suffix | 68,589,136 | 3925Rank Suffix | 4,617 |